createdAt,value
2023-03-29T00:00:44.273Z,2.70
2023-03-29T00:03:13.704Z,3.35
2023-03-29T00:05:42.307Z,3.80
2023-03-29T00:08:14.536Z,3.28
2023-03-29T00:10:44.250Z,3.20
2023-03-29T00:13:12.278Z,2.92
2023-03-29T00:15:40.382Z,2.75
2023-03-29T00:18:08.481Z,2.90
2023-03-29T00:20:36.624Z,2.60
2023-03-29T00:23:04.649Z,3.20
2023-03-29T00:25:32.679Z,3.10
2023-03-29T00:28:02.141Z,3.00
2023-03-29T00:30:30.127Z,2.80
2023-03-29T00:32:58.181Z,2.92
2023-03-29T00:35:27.092Z,3.20
2023-03-29T00:37:55.358Z,3.08
2023-03-29T00:40:23.703Z,2.97
2023-03-29T00:42:51.751Z,3.65
2023-03-29T00:45:23.672Z,3.10
2023-03-29T00:47:55.529Z,3.72
2023-03-29T00:50:29.731Z,3.00
2023-03-29T00:53:02.549Z,2.85
2023-03-29T00:55:35.528Z,3.38
2023-03-29T00:58:05.745Z,3.08
2023-03-29T01:00:41.491Z,2.50
2023-03-29T01:03:14.379Z,2.55
2023-03-29T01:05:46.757Z,2.50
2023-03-29T01:08:19.696Z,2.50
2023-03-29T01:10:52.977Z,3.10
2023-03-29T01:13:27.247Z,3.10
2023-03-29T01:15:59.212Z,2.95
2023-03-29T01:18:27.379Z,3.10
2023-03-29T01:21:16.295Z,2.55
2023-03-29T01:24:18.077Z,2.33
2023-03-29T01:26:55.127Z,2.45
2023-03-29T01:29:26.613Z,2.67
2023-03-29T01:32:00.173Z,2.78
2023-03-29T01:34:36.192Z,2.75
2023-03-29T01:37:10.034Z,2.53
2023-03-29T01:39:38.188Z,2.65
2023-03-29T01:42:32.347Z,2.58
2023-03-29T01:45:12.640Z,2.97
2023-03-29T01:47:47.506Z,2.60
2023-03-29T01:50:19.472Z,2.47
2023-03-29T01:52:53.775Z,2.58
2023-03-29T01:55:24.649Z,2.70
2023-03-29T01:57:54.738Z,3.50
2023-03-29T02:00:27.611Z,2.80
2023-03-29T02:03:01.050Z,3.03
2023-03-29T02:05:31.521Z,2.92
2023-03-29T02:08:01.262Z,2.80
2023-03-29T02:10:30.763Z,2.45
2023-03-29T02:12:59.526Z,2.90
2023-03-29T02:15:29.057Z,2.88
2023-03-29T02:17:57.837Z,2.58
2023-03-29T02:20:29.360Z,2.63
2023-03-29T02:23:08.887Z,2.65
2023-03-29T02:25:38.478Z,2.90
2023-03-29T02:28:08.100Z,2.85
2023-03-29T02:30:43.289Z,2.55
2023-03-29T02:33:15.625Z,2.85
2023-03-29T02:35:50.400Z,3.30
2023-03-29T02:38:18.745Z,2.93
2023-03-29T02:40:47.818Z,2.83
2023-03-29T02:43:17.953Z,2.55
2023-03-29T02:45:47.766Z,2.95
2023-03-29T02:48:19.144Z,3.13
2023-03-29T02:50:50.956Z,2.97
2023-03-29T02:53:24.190Z,2.65
2023-03-29T02:55:53.864Z,3.33
2023-03-29T02:58:28.802Z,3.35
2023-03-29T03:01:00.888Z,3.65
2023-03-29T03:03:29.341Z,2.92
2023-03-29T03:06:01.491Z,2.75
2023-03-29T03:08:32.118Z,3.15
2023-03-29T03:11:00.609Z,3.20
2023-03-29T03:13:28.799Z,3.20
2023-03-29T03:15:58.288Z,2.83
2023-03-29T03:18:26.397Z,3.60
2023-03-29T03:20:58.270Z,3.20
2023-03-29T03:23:26.699Z,3.30
2023-03-29T03:25:55.270Z,2.95
2023-03-29T03:28:24.997Z,3.17
2023-03-29T03:30:54.161Z,2.90
2023-03-29T03:33:49.612Z,3.40
2023-03-29T03:36:31.619Z,2.97
2023-03-29T03:38:59.939Z,2.85
2023-03-29T03:41:28.339Z,3.08
2023-03-29T03:43:56.684Z,2.50
2023-03-29T03:46:25.262Z,3.20
2023-03-29T03:48:55.541Z,2.72
2023-03-29T03:51:29.899Z,3.80
2023-03-29T03:53:57.982Z,3.17
2023-03-29T03:56:34.913Z,2.88
2023-03-29T03:59:07.047Z,2.90
2023-03-29T04:01:43.593Z,2.90
2023-03-29T04:04:20.622Z,3.10
2023-03-29T04:07:03.604Z,2.90
2023-03-29T04:09:39.805Z,3.00
2023-03-29T04:12:27.018Z,3.10
2023-03-29T04:14:56.035Z,3.05
2023-03-29T04:17:25.881Z,3.40
2023-03-29T04:19:55.622Z,3.38
2023-03-29T04:22:25.226Z,2.63
2023-03-29T04:24:54.140Z,3.10
2023-03-29T04:27:45.544Z,3.00
2023-03-29T04:30:24.764Z,3.28
2023-03-29T04:33:08.117Z,3.15
2023-03-29T04:35:39.895Z,2.67
2023-03-29T04:38:14.292Z,3.83
2023-03-29T04:40:43.917Z,3.10
2023-03-29T04:43:31.223Z,2.95
2023-03-29T04:46:13.260Z,2.90
2023-03-29T04:49:13.756Z,3.55
2023-03-29T04:51:47.770Z,3.92
2023-03-29T04:54:18.592Z,3.97
2023-03-29T04:57:17.043Z,3.65
2023-03-29T04:59:53.919Z,3.92
2023-03-29T05:02:40.465Z,3.50
2023-03-29T05:05:09.259Z,3.60
2023-03-29T05:07:38.862Z,3.88
2023-03-29T05:10:08.370Z,3.28
2023-03-29T05:12:36.790Z,3.53
2023-03-29T05:15:05.320Z,3.22
2023-03-29T05:17:34.300Z,3.65
2023-03-29T05:20:11.693Z,3.63
2023-03-29T05:22:41.797Z,3.50
2023-03-29T05:25:13.662Z,4.20
2023-03-29T05:27:45.920Z,4.20
2023-03-29T05:30:15.374Z,3.83
2023-03-29T05:32:53.977Z,3.97
2023-03-29T05:35:26.283Z,3.92
2023-03-29T05:37:57.087Z,3.85
2023-03-29T05:40:26.158Z,4.35
2023-03-29T05:43:13.164Z,4.22
2023-03-29T05:45:41.775Z,3.92
2023-03-29T05:48:10.553Z,4.05
2023-03-29T05:50:43.812Z,4.10
2023-03-29T05:53:14.655Z,4.90
2023-03-29T05:55:43.337Z,4.65
2023-03-29T05:58:14.469Z,4.32
2023-03-29T06:00:43.807Z,4.30
2023-03-29T06:03:29.733Z,4.03
2023-03-29T06:06:02.370Z,4.32
2023-03-29T06:08:32.458Z,4.40
2023-03-29T06:11:26.616Z,4.70
2023-03-29T06:14:15.260Z,3.97
2023-03-29T06:16:49.512Z,4.15
2023-03-29T06:19:18.670Z,3.88
2023-03-29T06:21:47.326Z,4.10
2023-03-29T06:24:21.442Z,4.53
2023-03-29T06:29:24.302Z,4.32
2023-03-29T06:31:52.723Z,5.22
2023-03-29T06:34:40.876Z,4.30
2023-03-29T06:37:24.762Z,4.80
2023-03-29T06:40:06.865Z,4.63
2023-03-29T06:42:41.850Z,4.38
2023-03-29T06:45:29.715Z,4.20
2023-03-29T06:47:59.933Z,4.30
2023-03-29T06:50:28.124Z,3.83
2023-03-29T06:53:08.657Z,3.63
2023-03-29T06:55:38.284Z,3.55
2023-03-29T06:58:24.731Z,3.80
2023-03-29T07:00:53.810Z,3.97
2023-03-29T07:03:28.522Z,3.85
2023-03-29T07:06:03.599Z,3.80
2023-03-29T07:08:35.207Z,3.80
2023-03-29T07:11:08.759Z,3.88
2023-03-29T07:14:00.633Z,3.90
2023-03-29T07:16:28.661Z,3.50
2023-03-29T07:19:16.015Z,3.55
2023-03-29T07:21:56.177Z,3.75
2023-03-29T07:24:44.499Z,3.75
2023-03-29T07:27:14.590Z,3.20
2023-03-29T07:29:43.162Z,3.15
2023-03-29T07:32:11.455Z,3.95
2023-03-29T07:34:43.321Z,3.10
2023-03-29T07:37:19.653Z,3.30
2023-03-29T07:39:48.317Z,3.45
2023-03-29T07:42:40.304Z,3.60
2023-03-29T07:45:13.703Z,3.65
2023-03-29T07:47:57.089Z,3.60
2023-03-29T07:50:26.144Z,3.60
2023-03-29T07:52:57.486Z,3.38
2023-03-29T07:55:25.559Z,3.10
2023-03-29T07:58:04.224Z,3.72
2023-03-29T08:00:34.110Z,3.45
2023-03-29T08:03:31.452Z,3.40
2023-03-29T08:06:03.106Z,3.53
2023-03-29T08:08:31.135Z,3.42
2023-03-29T08:11:04.367Z,3.08
2023-03-29T08:13:57.609Z,2.88
2023-03-29T08:16:28.365Z,3.03
2023-03-29T08:19:05.495Z,3.20
2023-03-29T08:21:53.776Z,3.22
2023-03-29T08:24:24.865Z,3.72
2023-03-29T08:26:57.798Z,4.93
2023-03-29T08:29:29.196Z,4.10
2023-03-29T08:31:58.270Z,3.80
2023-03-29T08:34:26.347Z,4.13
2023-03-29T08:37:16.856Z,3.55
2023-03-29T08:39:48.583Z,3.95
2023-03-29T08:43:13.297Z,3.80
2023-03-29T08:46:16.298Z,4.32
2023-03-29T08:48:49.494Z,4.18
2023-03-29T08:51:23.629Z,3.80
2023-03-29T08:53:54.898Z,3.58
2023-03-29T08:56:32.167Z,3.63
2023-03-29T08:59:27.633Z,3.85
2023-03-29T09:02:00.273Z,3.58
2023-03-29T09:04:30.435Z,4.15
2023-03-29T09:07:22.571Z,14.02
2023-03-29T09:09:51.788Z,4.43
2023-03-29T09:12:45.559Z,4.32
2023-03-29T09:15:19.399Z,3.50
2023-03-29T09:18:05.218Z,4.32
2023-03-29T09:20:44.007Z,4.10
2023-03-29T09:23:29.341Z,4.97
2023-03-29T09:26:14.127Z,5.80
2023-03-29T09:29:31.682Z,3.88
2023-03-29T09:32:02.438Z,4.47
2023-03-29T09:34:39.700Z,4.78
2023-03-29T09:37:21.809Z,3.90
2023-03-29T09:39:53.072Z,4.28
2023-03-29T09:42:24.988Z,4.80
2023-03-29T09:44:57.172Z,4.03
2023-03-29T09:47:37.078Z,4.43
2023-03-29T09:50:27.693Z,3.80
2023-03-29T09:52:58.748Z,3.95
2023-03-29T09:55:31.077Z,4.47
2023-03-29T09:58:30.932Z,3.85
2023-03-29T10:01:00.015Z,3.95
2023-03-29T10:03:30.309Z,3.83
2023-03-29T10:06:14.559Z,3.10
2023-03-29T10:08:51.052Z,3.88
2023-03-29T10:11:23.530Z,5.47
2023-03-29T10:13:54.958Z,5.80
2023-03-29T10:16:24.749Z,7.78
2023-03-29T10:18:54.659Z,4.97
2023-03-29T10:21:24.388Z,3.92
2023-03-29T10:23:59.484Z,3.60
2023-03-29T10:26:31.742Z,3.80
2023-03-29T10:29:01.785Z,3.67
2023-03-29T10:31:33.077Z,3.60
2023-03-29T10:34:05.181Z,4.18
2023-03-29T10:36:36.110Z,3.40
2023-03-29T10:39:06.376Z,3.95
2023-03-29T10:41:36.353Z,4.32
2023-03-29T10:44:05.043Z,3.92
2023-03-29T10:46:41.637Z,4.80
2023-03-29T10:49:19.378Z,3.25
2023-03-29T10:51:50.660Z,3.75
2023-03-29T10:54:21.823Z,3.28
2023-03-29T10:56:53.397Z,4.00
2023-03-29T10:59:28.368Z,3.22
2023-03-29T11:02:30.609Z,4.57
2023-03-29T11:05:15.671Z,3.95
2023-03-29T11:07:56.861Z,3.05
2023-03-29T11:10:34.424Z,3.10
2023-03-29T11:13:09.023Z,2.75
2023-03-29T11:15:46.920Z,3.80
2023-03-29T11:18:44.711Z,3.30
2023-03-29T11:21:25.172Z,3.47
2023-03-29T11:24:22.023Z,3.40
2023-03-29T11:27:05.567Z,4.15
2023-03-29T11:29:40.945Z,3.60
2023-03-29T11:32:15.870Z,3.17
2023-03-29T11:34:59.481Z,3.72
2023-03-29T11:37:36.719Z,3.90
2023-03-29T11:40:17.092Z,3.20
2023-03-29T11:42:48.172Z,4.25
2023-03-29T11:45:22.037Z,4.32
2023-03-29T11:47:52.885Z,3.97
2023-03-29T11:50:24.420Z,3.70
2023-03-29T11:52:55.537Z,3.08
2023-03-29T11:55:28.081Z,3.67
2023-03-29T11:57:59.862Z,3.50
2023-03-29T12:00:32.092Z,3.05
2023-03-29T12:03:06.692Z,2.97
2023-03-29T12:05:39.295Z,3.60
2023-03-29T12:08:10.259Z,3.47
2023-03-29T12:10:45.076Z,3.28
2023-03-29T12:13:21.131Z,3.17
2023-03-29T12:15:53.676Z,2.80
2023-03-29T12:18:25.130Z,3.20
2023-03-29T12:20:57.835Z,3.65
2023-03-29T12:23:31.169Z,3.83
2023-03-29T12:26:06.592Z,3.65
2023-03-29T12:28:56.506Z,3.22
2023-03-29T12:31:31.166Z,3.40
2023-03-29T12:34:36.211Z,3.97
2023-03-29T12:37:48.418Z,4.63
2023-03-29T12:40:54.653Z,3.80
2023-03-29T12:43:43.520Z,3.35
2023-03-29T12:46:34.710Z,4.15
2023-03-29T12:49:09.929Z,3.80
2023-03-29T12:51:41.875Z,4.50
2023-03-29T12:54:15.188Z,4.43
2023-03-29T12:56:55.042Z,4.60
2023-03-29T12:59:35.012Z,4.65
2023-03-29T13:02:20.988Z,4.20
2023-03-29T13:07:31.863Z,4.18
2023-03-29T13:10:01.438Z,4.43
2023-03-29T13:12:35.852Z,4.53
2023-03-29T13:15:07.789Z,2.88
2023-03-29T13:17:46.949Z,4.18
2023-03-29T13:20:39.765Z,3.60
2023-03-29T13:23:30.465Z,3.35
2023-03-29T13:26:26.970Z,6.53
2023-03-29T13:31:40.240Z,4.22
2023-03-29T13:34:22.005Z,4.30
2023-03-29T13:36:59.614Z,4.60
2023-03-29T13:39:31.789Z,6.55
2023-03-29T13:42:18.751Z,3.63
2023-03-29T13:44:49.140Z,6.10
2023-03-29T13:47:43.184Z,4.53
2023-03-29T13:50:18.810Z,4.38
2023-03-29T13:52:59.844Z,3.40
2023-03-29T13:55:33.664Z,4.22
2023-03-29T13:58:07.114Z,3.42
2023-03-29T14:00:41.103Z,3.63
2023-03-29T14:03:14.562Z,4.28
2023-03-29T14:05:45.560Z,3.40
2023-03-29T14:08:18.292Z,3.38
2023-03-29T14:10:46.766Z,3.25
2023-03-29T14:13:15.898Z,3.47
2023-03-29T14:15:46.856Z,2.80
2023-03-29T14:18:19.648Z,3.20
2023-03-29T14:20:50.193Z,2.65
2023-03-29T14:23:22.360Z,3.05
2023-03-29T14:25:51.175Z,2.72
2023-03-29T14:28:24.262Z,3.10
2023-03-29T14:30:53.685Z,3.22
2023-03-29T14:33:30.987Z,2.75
2023-03-29T14:36:01.537Z,2.45
2023-03-29T14:38:31.407Z,2.65
2023-03-29T14:41:01.234Z,2.50
2023-03-29T14:43:32.111Z,2.20
2023-03-29T14:46:03.645Z,2.20
2023-03-29T14:48:34.871Z,2.30
2023-03-29T14:51:03.271Z,2.75
2023-03-29T14:53:34.450Z,2.40
2023-03-29T14:56:03.249Z,2.40
2023-03-29T14:58:34.878Z,2.28
2023-03-29T15:01:06.962Z,2.40
2023-03-29T15:03:45.997Z,2.42
2023-03-29T15:06:15.790Z,2.25
2023-03-29T15:08:57.692Z,2.30
2023-03-29T15:11:32.868Z,2.30
2023-03-29T15:14:04.699Z,2.40
2023-03-29T15:16:33.456Z,2.00
2023-03-29T15:19:03.531Z,3.45
2023-03-29T15:21:34.275Z,3.15
2023-03-29T15:24:04.024Z,2.10
2023-03-29T15:26:33.640Z,3.60
2023-03-29T15:29:08.984Z,2.40
2023-03-29T15:31:39.005Z,2.20
2023-03-29T15:34:11.592Z,2.15
2023-03-29T15:36:43.163Z,2.22
2023-03-29T15:39:13.946Z,2.80
2023-03-29T15:41:42.464Z,2.20
2023-03-29T15:44:11.504Z,1.90
2023-03-29T15:46:39.624Z,2.97
2023-03-29T15:49:11.840Z,2.30
2023-03-29T15:51:40.367Z,2.60
2023-03-29T15:54:09.238Z,2.17
2023-03-29T15:56:43.783Z,2.13
2023-03-29T15:59:13.343Z,2.67
2023-03-29T16:01:41.729Z,2.97
2023-03-29T16:04:15.007Z,3.90
2023-03-29T16:06:43.228Z,3.50
2023-03-29T16:09:12.127Z,2.25
2023-03-29T16:11:41.596Z,2.60
2023-03-29T16:14:18.830Z,1.90
2023-03-29T16:16:47.206Z,2.55
2023-03-29T16:19:16.556Z,2.35
2023-03-29T16:21:45.196Z,2.58
2023-03-29T16:24:15.882Z,2.72
2023-03-29T16:26:44.118Z,2.90
2023-03-29T16:29:12.924Z,3.78
2023-03-29T16:31:41.649Z,3.55
2023-03-29T16:34:12.970Z,3.58
2023-03-29T16:36:43.489Z,2.50
2023-03-29T16:39:12.054Z,2.55
2023-03-29T16:41:40.829Z,2.92
2023-03-29T16:44:09.417Z,2.42
2023-03-29T16:46:37.652Z,2.50
2023-03-29T16:49:08.463Z,2.53
2023-03-29T16:51:36.532Z,1.80
2023-03-29T16:54:07.442Z,2.90
2023-03-29T16:56:36.756Z,2.28
2023-03-29T16:59:04.771Z,3.38
2023-03-29T17:01:32.927Z,2.53
2023-03-29T17:04:01.007Z,2.90
2023-03-29T17:06:29.104Z,8.27
2023-03-29T17:08:57.219Z,20.15
2023-03-29T17:11:26.909Z,22.75
2023-03-29T17:13:55.316Z,12.95
2023-03-29T17:16:23.759Z,6.60
2023-03-29T17:18:51.930Z,9.75
2023-03-29T17:21:20.282Z,5.55
2023-03-29T17:23:48.309Z,7.13
2023-03-29T17:26:16.366Z,4.10
2023-03-29T17:28:45.746Z,3.63
2023-03-29T17:31:13.898Z,3.00
2023-03-29T17:33:42.012Z,4.22
2023-03-29T17:36:11.105Z,4.65
2023-03-29T17:38:39.194Z,4.82
2023-03-29T17:41:08.246Z,4.75
2023-03-29T17:43:36.332Z,4.75
2023-03-29T17:46:06.292Z,4.30
2023-03-29T17:48:34.500Z,5.40
2023-03-29T17:51:02.587Z,4.38
2023-03-29T17:53:30.700Z,4.45
2023-03-29T17:55:58.798Z,4.90
2023-03-29T17:58:27.091Z,5.32
2023-03-29T18:00:55.575Z,6.47
2023-03-29T18:03:24.943Z,5.43
2023-03-29T18:05:54.177Z,4.10
2023-03-29T18:08:22.150Z,5.22
2023-03-29T18:10:50.145Z,4.85
2023-03-29T18:13:18.237Z,4.80
2023-03-29T18:15:47.502Z,3.38
2023-03-29T18:18:15.770Z,3.30
2023-03-29T18:20:47.120Z,4.45
2023-03-29T18:23:15.224Z,5.00
2023-03-29T18:25:43.183Z,4.20
2023-03-29T18:28:11.303Z,3.92
2023-03-29T18:30:39.324Z,3.90
2023-03-29T18:33:07.359Z,3.92
2023-03-29T18:35:35.793Z,3.45
2023-03-29T18:38:05.644Z,3.70
2023-03-29T18:40:34.657Z,3.60
2023-03-29T18:43:02.645Z,3.53
2023-03-29T18:45:31.491Z,3.08
2023-03-29T18:47:59.717Z,3.15
2023-03-29T18:50:27.694Z,3.30
2023-03-29T18:52:55.834Z,2.90
2023-03-29T18:55:25.421Z,3.28
2023-03-29T18:57:53.433Z,3.65
2023-03-29T19:00:21.442Z,3.60
2023-03-29T19:02:49.752Z,3.00
2023-03-29T19:05:17.844Z,3.22
2023-03-29T19:07:45.850Z,2.72
2023-03-29T19:10:14.153Z,3.10
2023-03-29T19:12:43.486Z,3.38
2023-03-29T19:15:12.824Z,3.00
2023-03-29T19:17:40.890Z,2.72
2023-03-29T19:20:11.982Z,2.95
2023-03-29T19:22:41.010Z,2.60
2023-03-29T19:25:09.847Z,2.22
2023-03-29T19:27:38.006Z,1.92
2023-03-29T19:30:09.088Z,2.38
2023-03-29T19:32:37.191Z,2.60
2023-03-29T19:35:05.606Z,2.97
2023-03-29T19:37:33.644Z,2.35
2023-03-29T19:40:01.653Z,2.67
2023-03-29T19:42:29.733Z,2.90
2023-03-29T19:44:57.826Z,2.70
2023-03-29T19:47:28.175Z,3.10
2023-03-29T19:49:57.807Z,2.50
2023-03-29T19:52:25.917Z,2.63
2023-03-29T19:54:53.827Z,2.45
2023-03-29T19:57:21.881Z,2.60
2023-03-29T19:59:49.878Z,2.80
2023-03-29T20:02:17.982Z,2.90
2023-03-29T20:04:47.341Z,2.63
2023-03-29T20:07:15.394Z,2.85
2023-03-29T20:09:45.393Z,2.42
2023-03-29T20:12:13.483Z,2.95
2023-03-29T20:14:43.131Z,2.90
2023-03-29T20:17:11.279Z,2.85
2023-03-29T20:19:44.016Z,3.05
2023-03-29T20:22:13.643Z,2.70
2023-03-29T20:24:41.689Z,3.20
2023-03-29T20:27:09.686Z,2.95
2023-03-29T20:29:37.868Z,2.90
2023-03-29T20:32:06.038Z,3.38
2023-03-29T20:34:34.058Z,3.13
2023-03-29T20:37:02.293Z,3.55
2023-03-29T20:39:31.766Z,3.80
2023-03-29T20:42:00.462Z,3.67
2023-03-29T20:44:28.604Z,3.53
2023-03-29T20:47:03.246Z,3.20
2023-03-29T20:49:36.898Z,3.13
2023-03-29T20:52:08.036Z,2.88
2023-03-29T20:54:38.721Z,2.75
2023-03-29T20:57:07.769Z,2.97
2023-03-29T20:59:37.932Z,2.30
2023-03-29T21:02:06.070Z,2.40
2023-03-29T21:04:34.113Z,2.60
2023-03-29T21:07:03.552Z,3.00
2023-03-29T21:09:34.248Z,2.63
2023-03-29T21:12:04.022Z,3.03
2023-03-29T21:14:33.036Z,2.50
2023-03-29T21:17:01.395Z,3.40
2023-03-29T21:19:29.539Z,2.80
2023-03-29T21:21:57.452Z,2.55
2023-03-29T21:24:25.442Z,2.55
2023-03-29T21:26:54.572Z,2.75
2023-03-29T21:29:24.268Z,2.85
2023-03-29T21:31:52.388Z,2.42
2023-03-29T21:34:20.496Z,2.50
2023-03-29T21:36:48.589Z,2.67
2023-03-29T21:39:16.635Z,2.10
2023-03-29T21:41:44.646Z,2.17
2023-03-29T21:44:12.835Z,2.75
2023-03-29T21:46:42.317Z,2.83
2023-03-29T21:49:10.461Z,2.20
2023-03-29T21:51:38.677Z,2.40
2023-03-29T21:54:06.821Z,2.80
2023-03-29T21:56:34.818Z,2.83
2023-03-29T21:59:02.880Z,2.60
2023-03-29T22:01:31.234Z,2.65
2023-03-29T22:04:00.628Z,2.45
2023-03-29T22:06:28.619Z,2.33
2023-03-29T22:08:56.600Z,1.80
2023-03-29T22:11:25.672Z,3.00
2023-03-29T22:13:53.642Z,2.45
2023-03-29T22:16:22.130Z,2.63
2023-03-29T22:18:50.493Z,2.40
2023-03-29T22:21:23.380Z,2.67
2023-03-29T22:23:53.523Z,3.25
2023-03-29T22:26:24.274Z,2.13
2023-03-29T22:28:52.631Z,2.58
2023-03-29T22:31:22.399Z,2.40
2023-03-29T22:33:50.849Z,2.63
2023-03-29T22:36:22.016Z,2.83
2023-03-29T22:38:51.137Z,2.63
2023-03-29T22:41:20.212Z,2.83
2023-03-29T22:43:48.198Z,2.55
2023-03-29T22:46:17.528Z,2.15
2023-03-29T22:48:45.969Z,3.00
2023-03-29T22:51:13.991Z,2.42
2023-03-29T22:53:43.346Z,2.42
2023-03-29T22:56:11.474Z,2.40
2023-03-29T22:58:39.473Z,2.72
2023-03-29T23:01:08.398Z,2.28
2023-03-29T23:03:36.971Z,2.13
2023-03-29T23:06:06.044Z,2.30
2023-03-29T23:08:35.211Z,2.10
2023-03-29T23:11:05.541Z,2.78
2023-03-29T23:13:35.097Z,2.03
2023-03-29T23:16:04.777Z,2.35
2023-03-29T23:18:34.808Z,2.13
2023-03-29T23:21:05.655Z,1.90
2023-03-29T23:23:34.411Z,2.60
2023-03-29T23:26:04.163Z,2.17
2023-03-29T23:28:34.523Z,1.75
2023-03-29T23:31:05.604Z,2.90
2023-03-29T23:33:36.145Z,2.35
2023-03-29T23:36:06.467Z,2.17
2023-03-29T23:38:36.571Z,1.95
2023-03-29T23:41:10.315Z,2.08
2023-03-29T23:43:41.265Z,2.55
2023-03-29T23:46:11.487Z,2.83
2023-03-29T23:48:39.899Z,2.20
2023-03-29T23:51:09.753Z,2.58
2023-03-29T23:53:38.246Z,2.17
2023-03-29T23:56:09.036Z,2.30
2023-03-29T23:58:38.657Z,2.70
